Time,TemperatureF,DewpointF,PressureIn,WindDirection,WindDirectionDegrees,WindSpeedMPH,WindSpeedGustMPH,Humidity,HourlyPrecipIn,Conditions,Clouds,dailyrainin,SoftwareType,DateUTC
2013-09-28 00:03:00,73.0,66.1,29.80,South,180,10.9,-999.0,79,-99.99,,,0.00,Acu-Link.com,2013-09-28 05:03:00,
2013-09-28 00:18:00,72.9,66.0,29.79,SSE,157,11.4,-999.0,79,-99.99,,,0.00,Acu-Link.com,2013-09-28 05:18:00,
2013-09-28 00:33:00,72.0,65.8,29.79,South,180,7.3,-999.0,81,-99.99,,,0.00,Acu-Link.com,2013-09-28 05:33:00,
2013-09-28 00:48:00,71.8,65.6,29.78,South,180,8.3,-999.0,81,-99.99,,,0.00,Acu-Link.com,2013-09-28 05:48:00,
2013-09-28 01:03:00,71.6,65.5,29.78,SSE,157,9.4,-999.0,81,-99.99,,,0.00,Acu-Link.com,2013-09-28 06:03:00,
2013-09-28 01:19:00,71.4,65.3,29.77,South,180,10.9,-999.0,81,-99.99,,,0.00,Acu-Link.com,2013-09-28 06:19:00,
2013-09-28 01:34:00,71.2,65.4,29.77,SE,135,16.1,-999.0,82,-99.99,,,0.00,Acu-Link.com,2013-09-28 06:34:00,
2013-09-28 01:49:00,70.5,65.1,29.77,SSE,157,9.9,-999.0,83,-99.99,,,0.00,Acu-Link.com,2013-09-28 06:49:00,
2013-09-28 02:04:00,70.2,64.8,29.78,SW,225,11.9,-999.0,83,-99.99,,,0.00,Acu-Link.com,2013-09-28 07:04:00,
2013-09-28 02:19:00,70.0,64.9,29.77,South,180,8.9,-999.0,84,-99.99,,,0.00,Acu-Link.com,2013-09-28 07:19:00,
2013-09-28 02:34:00,69.4,64.7,29.76,SSE,157,12.5,-999.0,85,-99.99,,,0.00,Acu-Link.com,2013-09-28 07:34:00,
2013-09-28 02:49:00,69.4,64.7,29.76,SSE,157,10.4,-999.0,85,-99.99,,,0.00,Acu-Link.com,2013-09-28 07:49:00,
2013-09-28 03:04:00,69.4,64.7,29.75,SSE,157,11.4,-999.0,85,-99.99,,,0.00,Acu-Link.com,2013-09-28 08:04:00,
2013-09-28 03:20:00,69.4,64.7,29.75,South,180,10.9,-999.0,85,-99.99,,,0.00,Acu-Link.com,2013-09-28 08:20:00,
2013-09-28 03:35:00,68.9,64.5,29.74,SSE,157,10.9,-999.0,86,-99.99,,,0.00,Acu-Link.com,2013-09-28 08:35:00,
2013-09-28 03:51:00,68.9,64.5,29.74,SSE,157,9.9,-999.0,86,-99.99,,,0.00,Acu-Link.com,2013-09-28 08:51:00,
2013-09-28 04:06:00,68.5,64.5,29.73,SSE,157,7.8,-999.0,87,-99.99,,,0.00,Acu-Link.com,2013-09-28 09:06:00,
2013-09-28 04:21:00,68.7,64.7,29.73,SSE,157,11.4,-999.0,87,-99.99,,,0.00,Acu-Link.com,2013-09-28 09:21:00,
2013-09-28 04:36:00,68.7,64.7,29.73,South,180,11.4,-999.0,87,-99.99,,,0.00,Acu-Link.com,2013-09-28 09:36:00,
2013-09-28 04:51:00,68.4,64.4,29.73,South,180,11.4,-999.0,87,-99.99,,,0.00,Acu-Link.com,2013-09-28 09:51:00,
2013-09-28 05:07:00,68.2,64.5,29.72,SSE,157,10.4,-999.0,88,-99.99,,,0.00,Acu-Link.com,2013-09-28 10:07:00,
2013-09-28 05:22:00,68.0,64.3,29.71,SSE,157,11.9,-999.0,88,-99.99,,,0.00,Acu-Link.com,2013-09-28 10:22:00,
2013-09-28 05:38:00,68.0,64.3,29.71,South,180,15.5,-999.0,88,-99.99,,,0.00,Acu-Link.com,2013-09-28 10:38:00,
2013-09-28 05:54:00,68.0,64.3,29.71,South,180,10.4,-999.0,88,-99.99,,,0.00,Acu-Link.com,2013-09-28 10:54:00,
2013-09-28 06:09:00,67.8,64.1,29.71,SSE,157,10.9,-999.0,88,-99.99,,,0.00,Acu-Link.com,2013-09-28 11:09:00,
2013-09-28 06:24:00,67.8,64.1,29.70,SSE,157,10.4,-999.0,88,-99.99,,,0.00,Acu-Link.com,2013-09-28 11:24:00,
2013-09-28 06:39:00,67.3,63.9,29.69,SE,135,9.4,-999.0,89,-99.99,,,0.00,Acu-Link.com,2013-09-28 11:39:00,
2013-09-28 06:55:00,67.5,64.1,29.67,SSE,157,12.5,-999.0,89,-99.99,,,0.00,Acu-Link.com,2013-09-28 11:55:00,
2013-09-28 07:10:00,67.5,64.1,29.67,SSE,157,15.5,-999.0,89,-99.99,,,0.00,Acu-Link.com,2013-09-28 12:10:00,
2013-09-28 07:25:00,67.3,63.9,29.67,SSE,157,14.0,-999.0,89,-99.99,,,0.00,Acu-Link.com,2013-09-28 12:25:00,
2013-09-28 07:40:00,67.5,64.1,29.67,SSE,157,11.9,-999.0,89,-99.99,,,0.00,Acu-Link.com,2013-09-28 12:40:00,
2013-09-28 07:55:00,67.5,64.1,29.67,South,180,13.5,-999.0,89,-99.99,,,0.00,Acu-Link.com,2013-09-28 12:55:00,
2013-09-28 08:10:00,67.1,65.0,29.66,SSE,157,9.9,-999.0,93,-99.99,,,0.00,Acu-Link.com,2013-09-28 13:10:00,
2013-09-28 08:25:00,66.0,65.1,29.66,SSE,157,7.8,-999.0,97,-99.99,,,0.00,Acu-Link.com,2013-09-28 13:25:00,
2013-09-28 08:40:00,66.0,65.4,29.66,South,180,9.9,-999.0,98,-99.99,,,0.00,Acu-Link.com,2013-09-28 13:40:00,
2013-09-28 08:56:00,66.2,65.6,29.65,SSE,157,9.4,-999.0,98,-99.99,,,0.01,Acu-Link.com,2013-09-28 13:56:00,
2013-09-28 09:11:00,65.8,65.2,29.63,South,180,10.9,-999.0,98,-99.99,,,0.05,Acu-Link.com,2013-09-28 14:11:00,
2013-09-28 09:26:00,65.7,65.1,29.64,South,180,14.0,-999.0,98,-99.99,,,0.08,Acu-Link.com,2013-09-28 14:26:00,
2013-09-28 09:41:00,65.3,64.7,29.64,SSE,157,10.9,-999.0,98,-99.99,,,0.09,Acu-Link.com,2013-09-28 14:41:00,
2013-09-28 09:56:00,65.3,64.7,29.64,South,180,12.5,-999.0,98,-99.99,,,0.10,Acu-Link.com,2013-09-28 14:56:00,
2013-09-28 10:11:00,65.1,64.5,29.64,SSE,157,12.5,-999.0,98,-99.99,,,0.13,Acu-Link.com,2013-09-28 15:11:00,
2013-09-28 10:26:00,65.1,64.5,29.63,SSW,202,9.9,-999.0,98,-99.99,,,0.16,Acu-Link.com,2013-09-28 15:26:00,
2013-09-28 10:41:00,59.9,59.3,29.67,South,180,13.5,-999.0,98,-99.99,,,0.18,Acu-Link.com,2013-09-28 15:41:00,
2013-09-28 10:56:00,55.9,55.3,29.69,West,270,13.5,-999.0,98,-99.99,,,0.20,Acu-Link.com,2013-09-28 15:56:00,
2013-09-28 11:11:00,55.2,54.6,29.70,WSW,247,10.9,-999.0,98,-99.99,,,0.20,Acu-Link.com,2013-09-28 16:11:00,
2013-09-28 11:27:00,54.7,54.1,29.72,West,270,6.8,-999.0,98,-99.99,,,0.20,Acu-Link.com,2013-09-28 16:27:00,
2013-09-28 11:42:00,54.3,53.7,29.73,SW,225,6.8,-999.0,98,-99.99,,,0.22,Acu-Link.com,2013-09-28 16:42:00,
2013-09-28 11:57:00,54.1,53.5,29.74,WNW,292,5.8,-999.0,98,-99.99,,,0.26,Acu-Link.com,2013-09-28 16:57:00,
2013-09-28 12:12:00,53.8,53.2,29.75,West,270,7.3,-999.0,98,-99.99,,,0.28,Acu-Link.com,2013-09-28 17:12:00,
2013-09-28 12:27:00,54.3,53.7,29.76,West,270,10.4,-999.0,98,-99.99,,,0.31,Acu-Link.com,2013-09-28 17:27:00,
2013-09-28 12:42:00,54.7,54.1,29.76,WSW,247,6.8,-999.0,98,-99.99,,,0.31,Acu-Link.com,2013-09-28 17:42:00,
2013-09-28 12:57:00,55.4,54.8,29.76,SW,225,6.3,-999.0,98,-99.99,,,0.32,Acu-Link.com,2013-09-28 17:57:00,
2013-09-28 13:13:00,55.9,55.3,29.75,West,270,6.8,-999.0,98,-99.99,,,0.32,Acu-Link.com,2013-09-28 18:13:00,
2013-09-28 13:28:00,56.8,56.2,29.77,WSW,247,8.3,-999.0,98,-99.99,,,0.32,Acu-Link.com,2013-09-28 18:28:00,
2013-09-28 13:43:00,57.9,56.5,29.77,SSW,202,9.4,-999.0,95,-99.99,,,0.32,Acu-Link.com,2013-09-28 18:43:00,
2013-09-28 13:58:00,58.3,56.3,29.77,West,270,4.7,-999.0,93,-99.99,,,0.32,Acu-Link.com,2013-09-28 18:58:00,
2013-09-28 14:14:00,57.9,56.2,29.79,SW,225,7.8,-999.0,94,-99.99,,,0.32,Acu-Link.com,2013-09-28 19:14:00,
2013-09-28 14:29:00,59.2,55.6,29.79,East,90,5.3,-999.0,88,-99.99,,,0.32,Acu-Link.com,2013-09-28 19:29:00,
2013-09-28 14:44:00,59.0,54.8,29.80,WNW,292,10.4,-999.0,86,-99.99,,,0.32,Acu-Link.com,2013-09-28 19:44:00,
2013-09-28 14:59:00,58.5,54.6,29.81,NW,315,5.8,-999.0,87,-99.99,,,0.32,Acu-Link.com,2013-09-28 19:59:00,
2013-09-28 15:14:00,58.3,54.4,29.82,WNW,292,2.7,-999.0,87,-99.99,,,0.32,Acu-Link.com,2013-09-28 20:14:00,
2013-09-28 15:30:00,58.3,54.4,29.82,WNW,292,7.8,-999.0,87,-99.99,,,0.32,Acu-Link.com,2013-09-28 20:30:00,
2013-09-28 15:45:00,58.3,54.8,29.83,SW,225,4.2,-999.0,88,-99.99,,,0.32,Acu-Link.com,2013-09-28 20:45:00,
2013-09-28 16:00:00,57.9,53.4,29.83,WSW,247,6.8,-999.0,85,-99.99,,,0.32,Acu-Link.com,2013-09-28 21:00:00,
2013-09-28 16:16:00,58.8,53.3,29.83,West,270,4.7,-999.0,82,-99.99,,,0.32,Acu-Link.com,2013-09-28 21:16:00,
2013-09-28 16:31:00,59.0,53.5,29.84,WSW,247,2.7,-999.0,82,-99.99,,,0.32,Acu-Link.com,2013-09-28 21:31:00,
2013-09-28 16:46:00,59.0,53.2,29.84,North,0,15.0,-999.0,81,-99.99,,,0.32,Acu-Link.com,2013-09-28 21:46:00,
2013-09-28 17:01:00,59.0,53.2,29.85,West,270,4.7,-999.0,81,-99.99,,,0.32,Acu-Link.com,2013-09-28 22:01:00,
2013-09-28 17:16:00,59.0,52.1,29.86,NW,315,7.8,-999.0,78,-99.99,,,0.32,Acu-Link.com,2013-09-28 22:16:00,
2013-09-28 17:32:00,59.4,52.5,29.86,South,180,3.7,-999.0,78,-99.99,,,0.32,Acu-Link.com,2013-09-28 22:32:00,
2013-09-28 17:47:00,61.2,52.5,29.87,SW,225,7.3,-999.0,73,-99.99,,,0.32,Acu-Link.com,2013-09-28 22:47:00,
2013-09-28 18:02:00,61.5,52.4,29.88,West,270,5.3,-999.0,72,-99.99,,,0.32,Acu-Link.com,2013-09-28 23:02:00,
2013-09-28 18:17:00,59.0,51.4,29.88,WNW,292,3.2,-999.0,76,-99.99,,,0.32,Acu-Link.com,2013-09-28 23:17:00,
2013-09-28 18:33:00,57.9,51.1,29.89,West,270,2.7,-999.0,78,-99.99,,,0.32,Acu-Link.com,2013-09-28 23:33:00,
2013-09-28 18:48:00,56.8,50.7,29.90,SW,225,3.2,-999.0,80,-99.99,,,0.32,Acu-Link.com,2013-09-28 23:48:00,
2013-09-28 19:03:00,55.8,50.7,29.91,SSW,202,1.7,-999.0,83,-99.99,,,0.32,Acu-Link.com,2013-09-29 00:03:00,
2013-09-28 19:18:00,54.7,50.0,29.91,South,180,2.2,-999.0,84,-99.99,,,0.32,Acu-Link.com,2013-09-29 00:18:00,
2013-09-28 19:34:00,53.8,49.4,29.93,West,270,3.7,-999.0,85,-99.99,,,0.32,Acu-Link.com,2013-09-29 00:34:00,
2013-09-28 19:49:00,53.2,49.1,29.93,SSE,157,1.7,-999.0,86,-99.99,,,0.32,Acu-Link.com,2013-09-29 00:49:00,
2013-09-28 20:04:00,52.9,49.1,29.94,South,180,2.7,-999.0,87,-99.99,,,0.32,Acu-Link.com,2013-09-29 01:04:00,
2013-09-28 20:19:00,52.3,48.5,29.93,SSW,202,3.7,-999.0,87,-99.99,,,0.32,Acu-Link.com,2013-09-29 01:19:00,
2013-09-28 20:35:00,52.2,48.4,29.94,SSE,157,3.2,-999.0,87,-99.99,,,0.32,Acu-Link.com,2013-09-29 01:35:00,
2013-09-28 20:50:00,51.8,48.1,29.94,South,180,3.2,-999.0,87,-99.99,,,0.32,Acu-Link.com,2013-09-29 01:50:00,
2013-09-28 21:05:00,49.8,47.9,29.94,South,180,3.7,-999.0,93,-99.99,,,0.32,Acu-Link.com,2013-09-29 02:05:00,
2013-09-28 21:20:00,49.5,48.1,29.94,SW,225,2.7,-999.0,95,-99.99,,,0.32,Acu-Link.com,2013-09-29 02:20:00,
2013-09-28 21:36:00,48.7,47.9,29.95,South,180,3.2,-999.0,97,-99.99,,,0.32,Acu-Link.com,2013-09-29 02:36:00,
2013-09-28 21:51:00,48.6,47.8,29.95,SW,225,3.2,-999.0,97,-99.99,,,0.32,Acu-Link.com,2013-09-29 02:51:00,
2013-09-28 22:06:00,48.4,47.6,29.95,South,180,3.7,-999.0,97,-99.99,,,0.32,Acu-Link.com,2013-09-29 03:06:00,
2013-09-28 22:21:00,47.5,47.0,29.95,South,180,2.7,-999.0,98,-99.99,,,0.32,Acu-Link.com,2013-09-29 03:21:00,
2013-09-28 22:36:00,46.9,46.4,29.95,SSW,202,3.2,-999.0,98,-99.99,,,0.32,Acu-Link.com,2013-09-29 03:36:00,
2013-09-28 22:51:00,47.1,46.6,29.95,SSE,157,2.7,-999.0,98,-99.99,,,0.32,Acu-Link.com,2013-09-29 03:51:00,
2013-09-28 23:07:00,46.6,46.1,29.95,South,180,3.2,-999.0,98,-99.99,,,0.32,Acu-Link.com,2013-09-29 04:07:00,
2013-09-28 23:22:00,46.6,46.1,29.96,South,180,3.7,-999.0,98,-99.99,,,0.32,Acu-Link.com,2013-09-29 04:22:00,
2013-09-28 23:37:00,46.6,46.1,29.95,South,180,3.2,-999.0,98,-99.99,,,0.32,Acu-Link.com,2013-09-29 04:37:00,
2013-09-28 23:53:00,46.6,46.1,29.96,SSW,202,2.7,-999.0,98,-99.99,,,0.32,Acu-Link.com,2013-09-29 04:53:00,